createdAt,value
2023-05-21T00:03:49.905Z,66.94
2023-05-21T00:08:51.921Z,61.67
2023-05-21T00:13:53.717Z,54.40
2023-05-21T00:18:57.853Z,53.42
2023-05-21T00:23:59.707Z,55.58
2023-05-21T00:29:01.501Z,57.48
2023-05-21T00:34:03.354Z,59.24
2023-05-21T00:39:05.444Z,67.76
2023-05-21T00:44:07.211Z,66.11
2023-05-21T00:49:10.832Z,60.32
2023-05-21T00:54:12.833Z,54.02
2023-05-21T00:59:16.424Z,53.77
2023-05-21T01:04:20.057Z,55.68
2023-05-21T01:09:22.127Z,57.46
2023-05-21T01:14:25.126Z,59.37
2023-05-21T01:19:28.118Z,67.78
2023-05-21T01:24:31.035Z,67.29
2023-05-21T01:29:33.845Z,62.48
2023-05-21T01:34:57.438Z,55.66
2023-05-21T01:40:16.024Z,54.90
2023-05-21T01:45:19.584Z,55.93
2023-05-21T01:50:24.615Z,57.57
2023-05-21T01:55:27.806Z,59.94
2023-05-21T02:00:31.998Z,68.66
2023-05-21T02:05:35.217Z,67.08
2023-05-21T02:10:37.350Z,62.19
2023-05-21T02:15:39.902Z,55.40
2023-05-21T02:20:45.157Z,54.21
2023-05-21T02:25:47.029Z,56.14
2023-05-21T02:30:49.144Z,58.28
2023-05-21T02:35:51.199Z,60.04
2023-05-21T02:40:53.118Z,68.39
2023-05-21T02:45:55.024Z,67.77
2023-05-21T02:50:57.744Z,62.81
2023-05-21T02:55:59.646Z,56.17
2023-05-21T03:01:01.544Z,55.42
2023-05-21T03:06:03.692Z,57.01
2023-05-21T03:11:05.589Z,58.80
2023-05-21T03:16:07.538Z,66.97
2023-05-21T03:21:09.422Z,66.30
2023-05-21T03:26:13.752Z,61.61
2023-05-21T03:31:15.632Z,54.74
2023-05-21T03:36:17.656Z,54.48
2023-05-21T03:41:20.944Z,56.41
2023-05-21T03:46:22.962Z,57.70
2023-05-21T03:51:25.201Z,58.83
2023-05-21T03:56:26.970Z,59.28
2023-05-21T04:01:29.049Z,66.95
2023-05-21T04:06:30.835Z,66.54
2023-05-21T04:11:33.130Z,60.52
2023-05-21T04:16:35.141Z,52.86
2023-05-21T04:21:37.303Z,51.99
2023-05-21T04:26:41.713Z,52.76
2023-05-21T04:31:44.227Z,54.10
2023-05-21T04:36:46.330Z,55.08
2023-05-21T04:41:50.426Z,55.58
2023-05-21T04:46:52.562Z,56.45
2023-05-21T04:51:54.787Z,57.31
2023-05-21T04:56:57.797Z,57.34
2023-05-21T05:02:00.124Z,57.43
2023-05-21T05:07:01.961Z,57.39
2023-05-21T05:12:04.762Z,57.27
2023-05-21T05:17:09.602Z,56.63
2023-05-21T05:22:13.431Z,56.48
2023-05-21T05:27:15.637Z,56.40
2023-05-21T05:32:17.489Z,56.05
2023-05-21T05:37:19.376Z,55.55
2023-05-21T05:42:21.245Z,54.98
2023-05-21T05:47:23.553Z,54.89
2023-05-21T05:52:25.418Z,54.29
2023-05-21T05:57:27.334Z,53.73
2023-05-21T06:02:29.266Z,53.70
2023-05-21T06:07:31.165Z,53.33
2023-05-21T06:12:33.329Z,52.95
2023-05-21T06:17:35.265Z,52.48
2023-05-21T06:22:37.699Z,52.05
2023-05-21T06:27:39.465Z,51.20
2023-05-21T06:32:42.478Z,50.61
2023-05-21T06:37:44.866Z,50.22
2023-05-21T06:42:46.846Z,49.62
2023-05-21T06:47:48.861Z,49.22
2023-05-21T06:52:51.059Z,48.75
2023-05-21T06:57:52.885Z,47.92
2023-05-21T07:02:54.826Z,47.30
2023-05-21T07:07:56.969Z,46.93
2023-05-21T07:12:58.826Z,46.41
2023-05-21T07:18:00.734Z,45.55
2023-05-21T07:23:02.897Z,44.87
2023-05-21T07:28:06.657Z,43.76
2023-05-21T07:33:08.882Z,43.28
2023-05-21T07:38:11.300Z,42.87
2023-05-21T07:43:13.374Z,42.64
2023-05-21T07:48:15.348Z,41.89
2023-05-21T07:53:17.224Z,40.90
2023-05-21T07:58:19.932Z,40.48
2023-05-21T08:03:22.603Z,39.29
2023-05-21T08:08:26.142Z,38.55
2023-05-21T08:13:28.050Z,38.38
2023-05-21T08:18:30.307Z,36.99
2023-05-21T08:23:32.293Z,36.59
2023-05-21T08:28:37.946Z,37.39
2023-05-21T08:33:39.942Z,37.48
2023-05-21T08:38:41.811Z,37.33
2023-05-21T08:43:50.174Z,36.20
2023-05-21T08:48:54.675Z,35.39
2023-05-21T08:53:59.414Z,34.86
2023-05-21T08:59:02.727Z,34.19
2023-05-21T09:04:19.539Z,34.41
2023-05-21T09:09:33.645Z,34.49
2023-05-21T09:14:38.406Z,34.04
2023-05-21T09:20:14.253Z,33.42
2023-05-21T09:25:20.835Z,33.23
2023-05-21T09:30:26.725Z,32.84
2023-05-21T09:35:43.765Z,32.85
2023-05-21T09:40:49.024Z,32.74
2023-05-21T09:45:56.553Z,31.81
2023-05-21T09:51:20.795Z,31.76
2023-05-21T09:56:31.793Z,31.74
2023-05-21T10:01:34.716Z,31.28
2023-05-21T10:06:48.761Z,31.16
2023-05-21T10:11:54.356Z,29.59
2023-05-21T10:16:56.882Z,29.22
2023-05-21T10:22:01.178Z,29.33
2023-05-21T10:27:04.191Z,29.43
2023-05-21T10:32:07.278Z,28.20
2023-05-21T10:37:10.169Z,26.96
2023-05-21T10:42:30.515Z,27.40
2023-05-21T10:48:12.108Z,27.46
2023-05-21T10:53:33.099Z,27.88
2023-05-21T10:58:46.143Z,28.62
2023-05-21T11:03:49.234Z,28.11
2023-05-21T11:08:55.725Z,28.28
2023-05-21T11:13:58.352Z,27.61
2023-05-21T11:19:01.682Z,26.37
2023-05-21T11:24:06.347Z,26.95
2023-05-21T11:29:09.094Z,25.14
2023-05-21T11:34:10.859Z,26.51
2023-05-21T11:39:21.605Z,26.24
2023-05-21T11:44:40.229Z,26.80
2023-05-21T11:49:42.294Z,25.83
2023-05-21T11:54:50.113Z,23.74
2023-05-21T11:59:52.502Z,25.70
2023-05-21T12:04:55.538Z,24.73
2023-05-21T12:09:58.453Z,24.90
2023-05-21T12:15:02.244Z,26.21
2023-05-21T12:20:07.869Z,25.78
2023-05-21T12:25:10.385Z,24.83
2023-05-21T12:30:13.427Z,24.04
2023-05-21T12:35:23.804Z,24.12
2023-05-21T12:40:39.610Z,23.56
2023-05-21T12:45:43.425Z,23.89
2023-05-21T12:50:45.378Z,23.10
2023-05-21T12:55:47.196Z,21.92
2023-05-21T13:00:49.231Z,22.04
2023-05-21T13:06:00.818Z,22.67
2023-05-21T13:11:03.754Z,22.82
2023-05-21T13:16:06.687Z,23.07
2023-05-21T13:21:08.623Z,22.93
2023-05-21T13:26:10.710Z,23.28
2023-05-21T13:31:14.660Z,23.05
2023-05-21T13:36:16.611Z,23.59
2023-05-21T13:41:18.605Z,22.87
2023-05-21T13:46:20.588Z,23.37
2023-05-21T13:51:37.573Z,22.63
2023-05-21T13:56:40.813Z,21.63
2023-05-21T14:01:44.965Z,22.50
2023-05-21T14:06:47.648Z,22.15
2023-05-21T14:11:49.615Z,21.04
2023-05-21T14:16:52.320Z,21.29
2023-05-21T14:21:54.305Z,21.07
2023-05-21T14:26:56.589Z,21.50
2023-05-21T14:31:58.602Z,22.21
2023-05-21T14:37:00.560Z,21.07
2023-05-21T14:42:04.748Z,20.86
2023-05-21T14:47:06.758Z,21.37
2023-05-21T14:52:08.630Z,20.94
2023-05-21T14:57:10.748Z,20.60
2023-05-21T15:02:13.010Z,21.06
2023-05-21T15:07:15.106Z,20.79
2023-05-21T15:12:17.669Z,21.08
2023-05-21T15:17:19.548Z,20.66
2023-05-21T15:22:21.620Z,20.84
2023-05-21T15:27:24.843Z,20.79
2023-05-21T15:32:26.738Z,20.58
2023-05-21T15:37:31.773Z,20.10
2023-05-21T15:42:33.652Z,19.49
2023-05-21T15:47:36.389Z,18.24
2023-05-21T15:52:38.225Z,19.67
2023-05-21T15:57:40.526Z,18.35
2023-05-21T16:02:42.630Z,18.38
2023-05-21T16:07:45.806Z,17.70
2023-05-21T16:12:47.716Z,19.00
2023-05-21T16:17:49.737Z,19.26
2023-05-21T16:22:51.850Z,19.34
2023-05-21T16:27:53.729Z,19.65
2023-05-21T16:32:55.761Z,19.99
2023-05-21T16:37:58.019Z,19.85
2023-05-21T16:43:01.884Z,21.01
2023-05-21T16:48:05.603Z,22.10
2023-05-21T16:53:09.281Z,22.94
2023-05-21T16:58:13.185Z,23.36
2023-05-21T17:03:15.679Z,23.80
2023-05-21T17:08:17.653Z,23.78
2023-05-21T17:13:22.841Z,23.95
2023-05-21T17:18:25.514Z,24.11
2023-05-21T17:23:27.289Z,24.81
2023-05-21T17:28:29.158Z,25.32
2023-05-21T17:33:30.942Z,25.87
2023-05-21T17:38:32.839Z,26.09
2023-05-21T17:43:34.819Z,26.43
2023-05-21T17:48:36.792Z,26.57
2023-05-21T17:53:40.804Z,26.67
2023-05-21T17:58:42.597Z,26.91
2023-05-21T18:03:44.594Z,27.22
2023-05-21T18:08:46.740Z,27.80
2023-05-21T18:13:49.978Z,28.08
2023-05-21T18:18:51.958Z,28.47
2023-05-21T18:23:54.646Z,29.13
2023-05-21T18:28:58.072Z,29.48
2023-05-21T18:34:00.029Z,29.97
2023-05-21T18:39:01.993Z,30.37
2023-05-21T18:44:05.614Z,30.81
2023-05-21T18:49:07.532Z,31.29
2023-05-21T18:54:09.375Z,31.82
2023-05-21T18:59:11.368Z,32.27
2023-05-21T19:04:13.338Z,32.84
2023-05-21T19:09:15.509Z,33.19
2023-05-21T19:14:17.434Z,33.58
2023-05-21T19:19:19.651Z,33.90
2023-05-21T19:24:21.679Z,34.02
2023-05-21T19:29:24.028Z,34.23
2023-05-21T19:34:26.925Z,34.34
2023-05-21T19:39:37.448Z,34.73
2023-05-21T19:44:42.698Z,35.11
2023-05-21T19:49:44.660Z,35.57
2023-05-21T19:54:46.542Z,35.87
2023-05-21T19:59:48.539Z,36.29
2023-05-21T20:04:51.015Z,36.93
2023-05-21T20:09:52.843Z,36.96
2023-05-21T20:14:56.412Z,37.44
2023-05-21T20:20:00.034Z,37.76
2023-05-21T20:25:03.656Z,38.35
2023-05-21T20:30:07.747Z,38.67
2023-05-21T20:35:09.750Z,38.99
2023-05-21T20:40:14.686Z,39.29
2023-05-21T20:45:16.984Z,39.56
2023-05-21T20:50:25.445Z,39.72
2023-05-21T20:55:27.294Z,40.13
2023-05-21T21:00:29.484Z,41.01
2023-05-21T21:05:31.361Z,42.90
2023-05-21T21:10:34.047Z,44.31
2023-05-21T21:15:36.261Z,44.86
2023-05-21T21:20:39.069Z,45.93
2023-05-21T21:25:41.221Z,46.77
2023-05-21T21:30:43.830Z,46.46
2023-05-21T21:35:46.212Z,46.40
2023-05-21T21:40:48.292Z,47.23
2023-05-21T21:45:51.044Z,48.98
2023-05-21T21:50:53.070Z,49.64
2023-05-21T21:55:55.476Z,49.73
2023-05-21T22:00:57.449Z,50.28
2023-05-21T22:06:00.547Z,50.36
2023-05-21T22:11:02.871Z,50.76
2023-05-21T22:16:05.558Z,50.99
2023-05-21T22:21:10.011Z,51.33
2023-05-21T22:26:12.768Z,51.60
2023-05-21T22:31:16.045Z,51.93
2023-05-21T22:36:17.973Z,52.18
2023-05-21T22:41:20.465Z,52.60
2023-05-21T22:46:22.475Z,52.70
2023-05-21T22:51:24.412Z,53.11
2023-05-21T22:56:26.945Z,53.51
2023-05-21T23:01:29.017Z,53.72
2023-05-21T23:06:31.388Z,54.00
2023-05-21T23:11:33.877Z,54.37
2023-05-21T23:16:35.892Z,54.65
2023-05-21T23:21:39.162Z,55.19
2023-05-21T23:26:41.139Z,54.97
2023-05-21T23:31:43.400Z,55.79
2023-05-21T23:36:45.403Z,57.04
2023-05-21T23:41:47.917Z,57.69
2023-05-21T23:46:50.187Z,58.47
2023-05-21T23:51:52.163Z,58.80
2023-05-21T23:56:54.071Z,58.33
